UAE9A OMDB-OPKC
Flight info
| Callsign | UAE9A |
|---|---|
| Flight time | N/A |
| Altitude | 39000 |
| Route | IVURO M428 TARBO Z440 DAMUM B524 ALPOR G216 LAKIV |
| Aircraft | B772/H-SDE2E3FGHIJ5LORVWXY/LB1D1 |
Departure
| Time | N/A |
|---|---|
| Airport | Dubai International Airport (OMDB) |
Arrival
| Time | 2026-04-29 13:19 |
|---|---|
| Airport | Jinnah International Airport (OPKC) |
| Time | Latitude | Longitude | Altitude | Speed | Heading |
|---|---|---|---|---|---|
| 2026-04-29 12:27 | 24.22020 | 60.70240 | 38708 ft | 539 kts | 104° |
| 2026-04-29 12:28 | 24.20236 | 60.78210 | 38718 ft | 539 kts | 104° |
| 2026-04-29 12:28 | 24.18443 | 60.86207 | 38721 ft | 542 kts | 104° |
| 2026-04-29 12:29 | 24.16651 | 60.94185 | 38708 ft | 544 kts | 104° |
| 2026-04-29 12:29 | 24.14837 | 61.02239 | 38716 ft | 545 kts | 104° |
| 2026-04-29 12:29 | 24.13928 | 61.06267 | 40441 ft | 545 kts | 104° |
| 2026-04-29 12:30 | 24.13022 | 61.10281 | 38598 ft | 543 kts | 104° |
| 2026-04-29 12:30 | 24.11206 | 61.18305 | 38705 ft | 544 kts | 104° |
| 2026-04-29 12:31 | 24.09393 | 61.26320 | 38714 ft | 548 kts | 103° |
| 2026-04-29 12:31 | 24.08492 | 61.34598 | 38715 ft | 550 kts | 90° |
| 2026-04-29 12:32 | 24.09033 | 61.42928 | 38717 ft | 549 kts | 80° |
| 2026-04-29 12:32 | 24.10337 | 61.51161 | 38712 ft | 549 kts | 78° |
| 2026-04-29 12:33 | 24.11651 | 61.59395 | 38712 ft | 549 kts | 79° |
| 2026-04-29 12:33 | 24.12868 | 61.67644 | 38709 ft | 548 kts | 79° |
| 2026-04-29 12:34 | 24.14049 | 61.75821 | 38709 ft | 547 kts | 79° |
| 2026-04-29 12:34 | 24.15229 | 61.84037 | 38711 ft | 546 kts | 80° |
| 2026-04-29 12:35 | 24.16344 | 61.92254 | 38717 ft | 545 kts | 80° |
| 2026-04-29 12:35 | 24.17441 | 62.00464 | 38711 ft | 545 kts | 80° |
| 2026-04-29 12:36 | 24.18534 | 62.08619 | 38712 ft | 545 kts | 80° |
| 2026-04-29 12:36 | 24.19636 | 62.16821 | 38706 ft | 545 kts | 80° |
| 2026-04-29 12:37 | 24.20735 | 62.25027 | 38704 ft | 545 kts | 80° |
| 2026-04-29 12:37 | 24.21830 | 62.33236 | 38709 ft | 545 kts | 80° |
| 2026-04-29 12:38 | 24.22912 | 62.41392 | 38709 ft | 545 kts | 80° |
| 2026-04-29 12:38 | 24.23997 | 62.49609 | 38704 ft | 545 kts | 80° |
| 2026-04-29 12:39 | 24.25079 | 62.57834 | 38706 ft | 545 kts | 80° |
| 2026-04-29 12:39 | 24.26157 | 62.66062 | 38705 ft | 545 kts | 80° |
| 2026-04-29 12:40 | 24.27229 | 62.74284 | 38703 ft | 546 kts | 80° |
| 2026-04-29 12:40 | 24.28292 | 62.82462 | 38704 ft | 546 kts | 80° |
| 2026-04-29 12:41 | 24.29357 | 62.90700 | 38705 ft | 546 kts | 80° |
| 2026-04-29 12:41 | 24.30418 | 62.98940 | 38703 ft | 546 kts | 80° |
| 2026-04-29 12:42 | 24.31476 | 63.07196 | 38701 ft | 547 kts | 80° |
| 2026-04-29 12:42 | 24.32523 | 63.15399 | 38697 ft | 547 kts | 80° |
| 2026-04-29 12:43 | 24.33571 | 63.23643 | 38709 ft | 546 kts | 80° |
| 2026-04-29 12:43 | 24.34613 | 63.31884 | 38707 ft | 546 kts | 80° |
| 2026-04-29 12:44 | 24.35651 | 63.40125 | 38704 ft | 545 kts | 80° |
| 2026-04-29 12:44 | 24.36683 | 63.48358 | 38705 ft | 545 kts | 80° |
| 2026-04-29 12:45 | 24.37705 | 63.56541 | 38701 ft | 545 kts | 80° |
| 2026-04-29 12:45 | 24.38730 | 63.64787 | 38702 ft | 546 kts | 80° |
| 2026-04-29 12:46 | 24.39751 | 63.73039 | 38705 ft | 546 kts | 80° |
| 2026-04-29 12:46 | 24.40767 | 63.81291 | 38704 ft | 546 kts | 80° |
| 2026-04-29 12:47 | 24.41773 | 63.89501 | 38705 ft | 547 kts | 80° |
| 2026-04-29 12:47 | 24.42782 | 63.97766 | 38703 ft | 547 kts | 80° |
| 2026-04-29 12:48 | 24.43787 | 64.06039 | 38705 ft | 547 kts | 80° |
| 2026-04-29 12:48 | 24.44788 | 64.14320 | 38703 ft | 547 kts | 80° |
| 2026-04-29 12:49 | 24.45778 | 64.22544 | 38707 ft | 547 kts | 80° |
| 2026-04-29 12:49 | 24.46771 | 64.30833 | 38703 ft | 548 kts | 80° |
| 2026-04-29 12:50 | 24.47758 | 64.39120 | 38703 ft | 548 kts | 80° |
| 2026-04-29 12:50 | 24.48742 | 64.47408 | 38703 ft | 548 kts | 80° |
| 2026-04-29 12:51 | 24.49721 | 64.55702 | 38707 ft | 548 kts | 80° |
| 2026-04-29 12:51 | 24.50690 | 64.63942 | 38703 ft | 548 kts | 80° |
| 2026-04-29 12:52 | 24.51660 | 64.72237 | 38704 ft | 548 kts | 80° |
| 2026-04-29 12:52 | 24.52627 | 64.80542 | 38704 ft | 548 kts | 80° |
| 2026-04-29 12:53 | 24.53366 | 64.87452 | 38703 ft | 549 kts | 82° |
| 2026-04-29 12:53 | 24.54098 | 64.97156 | 38708 ft | 549 kts | 83° |
| 2026-04-29 12:54 | 24.54688 | 65.05524 | 38706 ft | 549 kts | 83° |
| 2026-04-29 12:54 | 24.55207 | 65.12473 | 38704 ft | 549 kts | 83° |
| 2026-04-29 12:55 | 24.55849 | 65.20792 | 38705 ft | 549 kts | 83° |
| 2026-04-29 12:55 | 24.56174 | 65.24971 | 38604 ft | 547 kts | 83° |
| 2026-04-29 12:55 | 24.56494 | 65.29136 | 38633 ft | 547 kts | 83° |
| 2026-04-29 12:56 | 24.57232 | 65.38836 | 38702 ft | 551 kts | 83° |
| 2026-04-29 12:56 | 24.57759 | 65.45826 | 38708 ft | 553 kts | 83° |
| 2026-04-29 12:57 | 24.58390 | 65.54269 | 38703 ft | 555 kts | 83° |
| 2026-04-29 12:57 | 24.58699 | 65.58449 | 38657 ft | 540 kts | 83° |
| 2026-04-29 12:57 | 24.58988 | 65.62455 | 37892 ft | 516 kts | 82° |
| 2026-04-29 12:57 | 24.59272 | 65.66372 | 36080 ft | 517 kts | 82° |
| 2026-04-29 12:58 | 24.59564 | 65.70312 | 35216 ft | 509 kts | 82° |
| 2026-04-29 12:58 | 24.59847 | 65.74164 | 34267 ft | 504 kts | 81° |
| 2026-04-29 12:58 | 24.60132 | 65.78011 | 33304 ft | 509 kts | 81° |
| 2026-04-29 12:58 | 24.60422 | 65.81889 | 32220 ft | 525 kts | 81° |
| 2026-04-29 12:59 | 24.60725 | 65.85950 | 31129 ft | 540 kts | 82° |
| 2026-04-29 12:59 | 24.61025 | 65.90069 | 30389 ft | 539 kts | 82° |
| 2026-04-29 12:59 | 24.61309 | 65.94102 | 29600 ft | 520 kts | 81° |
| 2026-04-29 12:59 | 24.61578 | 65.97990 | 28712 ft | 500 kts | 81° |
| 2026-04-29 13:00 | 24.61837 | 66.01730 | 27953 ft | 482 kts | 81° |
| 2026-04-29 13:00 | 24.62095 | 66.05371 | 27256 ft | 477 kts | 82° |
| 2026-04-29 13:00 | 24.62363 | 66.09052 | 26553 ft | 492 kts | 82° |
| 2026-04-29 13:00 | 24.62642 | 66.12858 | 25812 ft | 504 kts | 82° |
| 2026-04-29 13:01 | 24.62912 | 66.16633 | 25176 ft | 501 kts | 83° |
| 2026-04-29 13:01 | 24.63179 | 66.20445 | 24946 ft | 500 kts | 83° |
| 2026-04-29 13:01 | 24.63443 | 66.24250 | 24765 ft | 499 kts | 83° |
| 2026-04-29 13:01 | 24.63704 | 66.28035 | 24701 ft | 495 kts | 83° |
| 2026-04-29 13:02 | 24.63963 | 66.31789 | 24665 ft | 488 kts | 83° |
| 2026-04-29 13:02 | 24.64215 | 66.35464 | 23895 ft | 476 kts | 83° |
| 2026-04-29 13:02 | 24.64461 | 66.39049 | 22524 ft | 466 kts | 83° |
| 2026-04-29 13:02 | 24.64704 | 66.42574 | 20980 ft | 459 kts | 83° |
| 2026-04-29 13:03 | 24.64940 | 66.46004 | 19706 ft | 453 kts | 83° |
| 2026-04-29 13:03 | 24.65177 | 66.49445 | 18795 ft | 451 kts | 83° |
| 2026-04-29 13:03 | 24.65412 | 66.52874 | 18243 ft | 449 kts | 83° |
| 2026-04-29 13:03 | 24.65644 | 66.56295 | 18019 ft | 448 kts | 83° |
| 2026-04-29 13:04 | 24.65874 | 66.59704 | 17832 ft | 446 kts | 83° |
| 2026-04-29 13:04 | 24.66103 | 66.63096 | 17697 ft | 443 kts | 83° |
| 2026-04-29 13:04 | 24.66329 | 66.66457 | 17693 ft | 437 kts | 83° |
| 2026-04-29 13:04 | 24.66551 | 66.69771 | 17685 ft | 433 kts | 83° |
| 2026-04-29 13:05 | 24.66778 | 66.73131 | 17709 ft | 449 kts | 83° |
| 2026-04-29 13:05 | 24.67010 | 66.76548 | 17588 ft | 438 kts | 83° |
| 2026-04-29 13:05 | 24.67221 | 66.79794 | 16619 ft | 414 kts | 83° |
| 2026-04-29 13:05 | 24.67420 | 66.82854 | 15423 ft | 409 kts | 83° |
| 2026-04-29 13:06 | 24.67632 | 66.85990 | 14270 ft | 405 kts | 84° |
| 2026-04-29 13:06 | 24.67844 | 66.89104 | 13016 ft | 413 kts | 84° |
| 2026-04-29 13:06 | 24.68044 | 66.92183 | 12036 ft | 393 kts | 84° |
| 2026-04-29 13:06 | 24.68227 | 66.95053 | 11507 ft | 359 kts | 84° |
| 2026-04-29 13:07 | 24.68395 | 66.97675 | 11056 ft | 330 kts | 84° |
| 2026-04-29 13:07 | 24.68553 | 67.00105 | 10599 ft | 308 kts | 84° |
| 2026-04-29 13:07 | 24.68701 | 67.02382 | 10265 ft | 291 kts | 84° |
| 2026-04-29 13:07 | 24.68907 | 67.04608 | 9964 ft | 296 kts | 75° |
| 2026-04-29 13:08 | 24.69745 | 67.06664 | 9658 ft | 295 kts | 55° |
| 2026-04-29 13:08 | 24.70812 | 67.08548 | 9308 ft | 288 kts | 56° |
| 2026-04-29 13:08 | 24.71861 | 67.10432 | 8999 ft | 291 kts | 56° |
| 2026-04-29 13:08 | 24.72899 | 67.12313 | 8690 ft | 290 kts | 56° |
| 2026-04-29 13:09 | 24.73924 | 67.14187 | 8373 ft | 286 kts | 56° |
| 2026-04-29 13:09 | 24.74957 | 67.16081 | 8082 ft | 290 kts | 56° |
| 2026-04-29 13:09 | 24.75998 | 67.17997 | 7603 ft | 293 kts | 57° |
| 2026-04-29 13:09 | 24.77035 | 67.19912 | 7052 ft | 290 kts | 57° |
| 2026-04-29 13:10 | 24.78061 | 67.21808 | 6538 ft | 286 kts | 57° |
| 2026-04-29 13:10 | 24.79072 | 67.23681 | 5999 ft | 283 kts | 57° |
| 2026-04-29 13:10 | 24.80065 | 67.25524 | 5434 ft | 275 kts | 57° |
| 2026-04-29 13:10 | 24.81036 | 67.27324 | 4899 ft | 273 kts | 58° |
| 2026-04-29 13:11 | 24.82000 | 67.29112 | 4358 ft | 270 kts | 58° |
| 2026-04-29 13:11 | 24.82944 | 67.30864 | 3822 ft | 270 kts | 58° |
| 2026-04-29 13:11 | 24.83910 | 67.32656 | 3327 ft | 277 kts | 59° |
| 2026-04-29 13:11 | 24.84885 | 67.34468 | 3133 ft | 273 kts | 59° |
| 2026-04-29 13:12 | 24.85841 | 67.36245 | 3004 ft | 265 kts | 59° |
| 2026-04-29 13:12 | 24.86776 | 67.37928 | 2976 ft | 248 kts | 52° |
| 2026-04-29 13:12 | 24.88052 | 67.39051 | 2982 ft | 229 kts | 19° |
| 2026-04-29 13:12 | 24.89581 | 67.39370 | 3021 ft | 227 kts | 358° |
| 2026-04-29 13:13 | 24.91097 | 67.39174 | 3028 ft | 216 kts | 342° |
| 2026-04-29 13:13 | 24.92531 | 67.38753 | 2999 ft | 210 kts | 340° |
| 2026-04-29 13:13 | 24.93874 | 67.38199 | 2986 ft | 203 kts | 321° |
| 2026-04-29 13:13 | 24.94698 | 67.37001 | 2992 ft | 198 kts | 284° |
| 2026-04-29 13:14 | 24.94813 | 67.35519 | 3010 ft | 193 kts | 266° |
| 2026-04-29 13:14 | 24.94748 | 67.34041 | 2936 ft | 190 kts | 261° |
| 2026-04-29 13:14 | 24.94565 | 67.32629 | 2710 ft | 180 kts | 260° |
| 2026-04-29 13:14 | 24.94346 | 67.31330 | 2482 ft | 164 kts | 255° |
| 2026-04-29 13:15 | 24.94086 | 67.30192 | 2301 ft | 140 kts | 253° |
| 2026-04-29 13:15 | 24.93858 | 67.29268 | 2131 ft | 116 kts | 253° |
| 2026-04-29 13:15 | 24.93646 | 67.28427 | 2003 ft | 114 kts | 253° |
| 2026-04-29 13:15 | 24.93429 | 67.27569 | 1852 ft | 120 kts | 253° |
| 2026-04-29 13:16 | 24.93202 | 67.26671 | 1713 ft | 122 kts | 255° |
| 2026-04-29 13:16 | 24.92978 | 67.25788 | 1549 ft | 115 kts | 255° |
| 2026-04-29 13:16 | 24.92765 | 67.24942 | 1430 ft | 116 kts | 255° |
| 2026-04-29 13:16 | 24.92545 | 67.24072 | 1252 ft | 119 kts | 255° |
| 2026-04-29 13:17 | 24.92322 | 67.23193 | 1107 ft | 119 kts | 255° |
| 2026-04-29 13:17 | 24.92095 | 67.22297 | 966 ft | 126 kts | 256° |
| 2026-04-29 13:17 | 24.91865 | 67.21375 | 808 ft | 122 kts | 253° |
| 2026-04-29 13:17 | 24.91642 | 67.20501 | 683 ft | 121 kts | 253° |
| 2026-04-29 13:18 | 24.91412 | 67.19587 | 513 ft | 119 kts | 253° |
| 2026-04-29 13:18 | 24.91182 | 67.18687 | 368 ft | 129 kts | 255° |
| 2026-04-29 13:18 | 24.90949 | 67.17754 | 199 ft | 120 kts | 254° |
| 2026-04-29 13:18 | 24.90731 | 67.16909 | 110 ft | 105 kts | 254° |
| 2026-04-29 13:19 | 24.90572 | 67.16284 | 109 ft | 63 kts | 254° |
| 2026-04-29 13:19 | 24.90496 | 67.15985 | 109 ft | 18 kts | 254° |
| 2026-04-29 13:19 | 24.90488 | 67.15952 | 109 ft | 5 kts | 254° |
| 2026-04-29 13:19 | 24.90458 | 67.15832 | 109 ft | 20 kts | 254° |
| 2026-04-29 13:20 | 24.90358 | 67.15767 | 108 ft | 15 kts | 167° |
| 2026-04-29 13:20 | 24.90266 | 67.15814 | 106 ft | 15 kts | 118° |
| 2026-04-29 13:20 | 24.90282 | 67.15927 | 105 ft | 15 kts | 75° |
| 2026-04-29 13:20 | 24.90310 | 67.16038 | 107 ft | 15 kts | 74° |
| 2026-04-29 13:21 | 24.90337 | 67.16150 | 106 ft | 15 kts | 76° |
| 2026-04-29 13:21 | 24.90365 | 67.16262 | 106 ft | 15 kts | 75° |
| 2026-04-29 13:21 | 24.90393 | 67.16373 | 106 ft | 15 kts | 73° |
| 2026-04-29 13:21 | 24.90422 | 67.16484 | 106 ft | 15 kts | 74° |
| 2026-04-29 13:22 | 24.90457 | 67.16620 | 106 ft | 22 kts | 72° |
| 2026-04-29 13:22 | 24.90504 | 67.16804 | 106 ft | 27 kts | 74° |
| 2026-04-29 13:22 | 24.90544 | 67.16958 | 106 ft | 14 kts | 73° |
| 2026-04-29 13:22 | 24.90523 | 67.17042 | 107 ft | 14 kts | 163° |
| 2026-04-29 13:23 | 24.90438 | 67.17025 | 107 ft | 7 kts | 202° |
| 2026-04-29 13:23 | 24.90392 | 67.17003 | 106 ft | 7 kts | 204° |
| 2026-04-29 13:23 | 24.90346 | 67.16980 | 106 ft | 5 kts | 204° |
| 2026-04-29 13:23 | 24.90344 | 67.16978 | 106 ft | 0 kts | 204° |
| 2026-04-29 13:24 | 24.90342 | 67.16978 | 106 ft | 1 kts | 204° |